createdAt,value
2019-01-04T00:01:32.277Z,102197.64
2019-01-04T00:04:22.194Z,102090.83
2019-01-04T00:06:51.516Z,102182.37
2019-01-04T00:09:21.065Z,102188.52
2019-01-04T00:11:50.376Z,102178.92
2019-01-04T00:14:19.692Z,102165.06
2019-01-04T00:16:49.090Z,102157.66
2019-01-04T00:19:18.421Z,102149.44
2019-01-04T00:21:47.874Z,102135.98
2019-01-04T00:24:17.351Z,102133.84
2019-01-04T00:26:46.657Z,102138.19
2019-01-04T00:29:16.141Z,102142.09
2019-01-04T00:32:04.539Z,102136.45
2019-01-04T00:37:15.012Z,102129.45
2019-01-04T00:39:44.314Z,102136.38
2019-01-04T00:42:13.723Z,102128.98
2019-01-04T00:44:43.118Z,102112.04
2019-01-04T00:47:31.570Z,102104.20
2019-01-04T00:50:00.863Z,102109.41
2019-01-04T00:55:50.504Z,102066.73
2019-01-04T00:58:41.256Z,102102.84
2019-01-04T01:01:48.589Z,102119.41
2019-01-04T01:08:13.546Z,102106.81
2019-01-04T01:11:20.858Z,102105.51
2019-01-04T01:14:28.175Z,102103.34
2019-01-04T01:21:02.006Z,102100.75
2019-01-04T01:24:09.384Z,102102.55
2019-01-04T01:27:16.704Z,102107.30
2019-01-04T01:30:11.295Z,102101.69
2019-01-04T01:33:04.109Z,102045.05
2019-01-04T01:39:25.710Z,102095.59
2019-01-04T01:42:33.024Z,102090.84
2019-01-04T01:45:40.338Z,102104.29
2019-01-04T01:48:25.176Z,102113.81
2019-01-04T01:51:32.568Z,102063.28
2019-01-04T01:54:02.126Z,102087.30
2019-01-04T01:56:31.472Z,102052.07
2019-01-04T01:59:00.983Z,102078.22
2019-01-04T02:01:30.278Z,102063.89
2019-01-04T02:03:59.794Z,102060.88
2019-01-04T02:06:29.100Z,102060.91
2019-01-04T02:08:58.808Z,102052.23
2019-01-04T02:11:28.173Z,102055.73
2019-01-04T02:13:57.544Z,102024.39
2019-01-04T02:16:26.836Z,102059.19
2019-01-04T02:18:56.289Z,102058.78
2019-01-04T02:21:25.587Z,101981.30
2019-01-04T02:23:54.997Z,102062.26
2019-01-04T02:26:24.314Z,101993.45
2019-01-04T02:28:53.851Z,102057.03
2019-01-04T02:31:23.144Z,102050.94
2019-01-04T02:39:41.182Z,102035.72
2019-01-04T02:42:10.556Z,102034.42
2019-01-04T02:44:40.006Z,102029.20
2019-01-04T02:47:09.300Z,102028.78
2019-01-04T02:49:38.881Z,102026.20
2019-01-04T02:52:27.249Z,102020.56
2019-01-04T02:54:56.713Z,102015.36
2019-01-04T02:57:26.086Z,102029.67
2019-01-04T02:59:55.386Z,102014.06
2019-01-04T03:02:24.889Z,102008.40
2019-01-04T03:04:54.187Z,102009.70
2019-01-04T03:07:23.569Z,102003.18
2019-01-04T03:10:11.763Z,102005.35
2019-01-04T03:12:41.085Z,102007.06
2019-01-04T03:15:10.362Z,101998.39
2019-01-04T03:17:39.628Z,101997.08
2019-01-04T03:20:27.916Z,102004.02
2019-01-04T03:22:57.200Z,102005.33
2019-01-04T03:25:26.541Z,102002.72
2019-01-04T03:27:55.837Z,102004.02
2019-01-04T03:30:25.193Z,102006.20
2019-01-04T03:32:54.483Z,102004.43
2019-01-04T03:35:23.936Z,101998.80
2019-01-04T03:37:53.228Z,101994.89
2019-01-04T03:40:42.611Z,101980.15
2019-01-04T03:43:12.082Z,101932.27
2019-01-04T03:45:41.430Z,101941.00
2019-01-04T03:48:10.928Z,101977.56
2019-01-04T03:50:40.304Z,101978.41
2019-01-04T03:53:28.654Z,101974.97
2019-01-04T03:55:58.243Z,101966.71
2019-01-04T03:58:27.586Z,101894.98
2019-01-04T04:03:45.651Z,101956.80
2019-01-04T04:06:14.953Z,101962.85
2019-01-04T04:11:39.892Z,101960.27
2019-01-04T04:14:09.382Z,101929.45
2019-01-04T04:16:38.649Z,101880.32
2019-01-04T04:19:08.175Z,101938.58
2019-01-04T04:21:37.465Z,101932.55
2019-01-04T04:24:07.035Z,101936.03
2019-01-04T04:26:36.332Z,101930.83
2019-01-04T04:29:05.976Z,101924.34
2019-01-04T04:31:35.257Z,101915.66
2019-01-04T04:34:04.755Z,101922.18
2019-01-04T04:36:34.040Z,101884.82
2019-01-04T04:41:53.920Z,101921.34
2019-01-04T04:44:23.203Z,101922.65
2019-01-04T04:46:52.728Z,101920.89
2019-01-04T04:49:41.333Z,101918.28
2019-01-04T04:52:29.766Z,101912.18
2019-01-04T04:54:59.059Z,101901.32
2019-01-04T04:57:28.735Z,101892.61
2019-01-04T04:59:58.017Z,101889.16
2019-01-04T05:02:27.501Z,101888.69
2019-01-04T05:04:56.777Z,101834.84
2019-01-04T05:07:26.326Z,101857.38
2019-01-04T05:09:55.612Z,101876.10
2019-01-04T05:12:25.284Z,101874.33
2019-01-04T05:14:54.567Z,101810.07
2019-01-04T05:17:24.153Z,101862.16
2019-01-04T05:19:53.416Z,101859.56
2019-01-04T05:22:23.053Z,101849.14
2019-01-04T05:24:52.353Z,101801.41
2019-01-04T05:27:22.272Z,101850.87
2019-01-04T05:29:51.556Z,101843.95
2019-01-04T05:32:21.220Z,101842.64
2019-01-04T05:34:50.490Z,101846.98
2019-01-04T05:37:20.184Z,101841.35
2019-01-04T05:39:49.519Z,101843.12
2019-01-04T05:42:19.112Z,101845.73
2019-01-04T05:44:48.482Z,101851.80
2019-01-04T05:47:18.127Z,101854.41
2019-01-04T05:49:47.438Z,101846.58
2019-01-04T05:52:17.095Z,101847.04
2019-01-04T05:54:46.396Z,101850.50
2019-01-04T06:00:04.325Z,101844.86
2019-01-04T06:02:33.639Z,101844.43
2019-01-04T06:05:03.171Z,101836.61
2019-01-04T06:07:32.502Z,101835.30
2019-01-04T06:10:01.792Z,101836.61
2019-01-04T06:12:50.139Z,101781.02
2019-01-04T06:15:19.503Z,101823.13
2019-01-04T06:17:48.870Z,101818.79
2019-01-04T06:20:18.168Z,101814.88
2019-01-04T06:22:47.529Z,101818.80
2019-01-04T06:25:16.863Z,101810.09
2019-01-04T06:27:46.214Z,101804.03
2019-01-04T06:30:15.583Z,101798.37
2019-01-04T06:32:45.067Z,101801.44
2019-01-04T06:35:14.358Z,101791.86
2019-01-04T06:38:02.689Z,101790.55
2019-01-04T06:40:32.031Z,101787.10
2019-01-04T06:43:01.436Z,101782.31
2019-01-04T06:45:30.768Z,101781.88
2019-01-04T06:48:00.162Z,101781.41
2019-01-04T06:50:29.495Z,101795.33
2019-01-04T06:52:58.896Z,101806.64
2019-01-04T06:55:55.490Z,101809.24
2019-01-04T06:58:24.781Z,101797.05
2019-01-04T07:00:54.149Z,101791.42
2019-01-04T07:03:45.185Z,101802.28
2019-01-04T07:06:14.538Z,101800.97
2019-01-04T07:11:51.145Z,101780.59
2019-01-04T07:14:20.471Z,101774.51
2019-01-04T07:17:08.842Z,101770.61
2019-01-04T07:19:38.261Z,101764.09
2019-01-04T07:22:07.574Z,101768.87
2019-01-04T07:24:36.911Z,101778.42
2019-01-04T07:27:06.199Z,101775.38
2019-01-04T07:29:35.514Z,101779.70
2019-01-04T07:32:04.834Z,101784.06
2019-01-04T07:34:34.271Z,101790.98
2019-01-04T07:37:03.570Z,101780.11
2019-01-04T07:42:07.836Z,101798.77
2019-01-04T07:44:56.296Z,101789.22
2019-01-04T07:47:25.584Z,101790.52
2019-01-04T07:49:55.059Z,101779.69
2019-01-04T07:52:24.351Z,101774.03
2019-01-04T07:54:53.950Z,101776.63
2019-01-04T07:57:42.139Z,101776.62
2019-01-04T08:00:13.612Z,101777.06
2019-01-04T08:02:53.636Z,101787.46
2019-01-04T08:05:27.103Z,101803.48
2019-01-04T08:07:56.455Z,101797.86
2019-01-04T08:10:26.080Z,101792.66
2019-01-04T08:13:14.325Z,101790.05
2019-01-04T08:15:43.858Z,101727.89
2019-01-04T08:18:13.193Z,101807.38
2019-01-04T08:21:03.183Z,101803.47
2019-01-04T08:23:32.553Z,101800.42
2019-01-04T08:28:36.499Z,101820.37
2019-01-04T08:31:06.106Z,101817.80
2019-01-04T08:33:35.382Z,101811.73
2019-01-04T08:36:04.853Z,101805.72
2019-01-04T08:38:34.170Z,101797.93
2019-01-04T08:41:03.560Z,101798.80
2019-01-04T08:43:32.886Z,101800.11
2019-01-04T08:46:02.772Z,101794.91
2019-01-04T08:48:32.143Z,101792.31
2019-01-04T08:51:01.480Z,101782.78
2019-01-04T08:54:08.730Z,101788.41
2019-01-04T08:56:39.222Z,101784.94
2019-01-04T08:59:08.517Z,101785.39
2019-01-04T09:01:38.036Z,101781.44
2019-01-04T09:04:07.353Z,101759.75
2019-01-04T09:06:36.884Z,101761.89
2019-01-04T09:09:08.004Z,101761.03
2019-01-04T09:11:37.386Z,101714.58
2019-01-04T09:14:06.700Z,101709.37
2019-01-04T09:16:36.162Z,101765.75
2019-01-04T09:19:05.678Z,101770.11
2019-01-04T09:21:35.162Z,101785.75
2019-01-04T09:24:04.476Z,101737.12
2019-01-04T09:26:34.519Z,101780.92
2019-01-04T09:29:03.895Z,101770.45
2019-01-04T09:31:33.330Z,101776.08
2019-01-04T09:34:21.715Z,101770.86
2019-01-04T09:36:51.082Z,101763.91
2019-01-04T09:39:39.421Z,101717.06
2019-01-04T09:42:14.084Z,101766.08
2019-01-04T09:44:44.453Z,101760.45
2019-01-04T09:47:13.760Z,101748.72
2019-01-04T09:49:43.213Z,101748.28
2019-01-04T09:52:31.572Z,101747.78
2019-01-04T09:55:00.886Z,101746.47
2019-01-04T09:57:30.638Z,101736.03
2019-01-04T09:59:59.962Z,101727.35
2019-01-04T10:02:29.385Z,101725.58
2019-01-04T10:07:47.054Z,101729.03
2019-01-04T10:10:16.579Z,101728.13
2019-01-04T10:12:45.906Z,101715.95
2019-01-04T10:15:17.055Z,101715.05
2019-01-04T10:17:46.351Z,101706.78
2019-01-04T10:20:15.970Z,101704.99
2019-01-04T10:22:45.318Z,101699.75
2019-01-04T10:25:14.847Z,101696.24
2019-01-04T10:27:44.161Z,101697.08
2019-01-04T10:30:32.524Z,101694.02
2019-01-04T10:33:02.153Z,101681.84
2019-01-04T10:35:31.448Z,101632.85
2019-01-04T10:38:01.183Z,101668.72
2019-01-04T10:40:30.466Z,101663.00
2019-01-04T10:42:59.757Z,101651.20
2019-01-04T10:45:29.141Z,101646.38
2019-01-04T10:47:58.612Z,101645.42
2019-01-04T10:50:27.967Z,101636.13
2019-01-04T10:52:57.488Z,101625.93
2019-01-04T10:55:46.055Z,101617.37
2019-01-04T10:58:15.401Z,101611.66
2019-01-04T11:00:44.974Z,101609.92
2019-01-04T11:03:14.287Z,101599.87
2019-01-04T11:05:43.895Z,101592.01
2019-01-04T11:08:13.299Z,101584.16
2019-01-04T11:10:42.845Z,101595.48
2019-01-04T11:13:12.156Z,101584.98
2019-01-04T11:16:00.549Z,101584.00
2019-01-04T11:18:30.117Z,101575.69
2019-01-04T11:21:01.863Z,101549.05
2019-01-04T11:24:09.664Z,101544.22
2019-01-04T11:30:13.097Z,101540.11
2019-01-04T11:33:04.570Z,101555.46
2019-01-04T11:36:11.905Z,101556.92
2019-01-04T11:39:19.379Z,101556.59
2019-01-04T11:42:26.670Z,101550.51
2019-01-04T11:45:34.194Z,101539.56
2019-01-04T11:52:12.143Z,101530.27
2019-01-04T11:54:41.950Z,101529.28
2019-01-04T11:57:11.248Z,101518.52
2019-01-04T11:59:40.806Z,101528.04
2019-01-04T12:02:10.143Z,101524.90
2019-01-04T12:04:39.680Z,101534.79
2019-01-04T12:07:09.097Z,101527.48
2019-01-04T12:09:39.219Z,101510.77
2019-01-04T12:12:08.534Z,101503.95
2019-01-04T12:14:41.369Z,101497.93
2019-01-04T12:19:57.533Z,101482.06
2019-01-04T12:22:46.101Z,101475.20
2019-01-04T12:27:56.569Z,101474.39
2019-01-04T12:30:26.232Z,101474.32
2019-01-04T12:33:14.869Z,101464.70
2019-01-04T12:38:32.603Z,101456.47
2019-01-04T12:41:02.214Z,101449.91
2019-01-04T12:43:31.554Z,101449.00
2019-01-04T12:46:01.210Z,101454.17
2019-01-04T12:51:39.295Z,101447.55
2019-01-04T12:54:08.589Z,101457.14
2019-01-04T12:56:38.164Z,101449.77
2019-01-04T12:59:07.497Z,101437.97
2019-01-04T13:01:37.129Z,101446.23
2019-01-04T13:04:06.422Z,101450.61
2019-01-04T13:06:36.093Z,101440.52
2019-01-04T13:09:26.497Z,101444.53
2019-01-04T13:11:55.825Z,101446.34
2019-01-04T13:14:25.322Z,101441.87
2019-01-04T13:16:54.614Z,101376.30
2019-01-04T13:19:25.820Z,101438.30
2019-01-04T13:21:55.196Z,101398.64
2019-01-04T13:24:24.603Z,101432.18
2019-01-04T13:26:53.895Z,101425.73
2019-01-04T13:29:23.257Z,101420.05
2019-01-04T13:31:52.554Z,101389.06
2019-01-04T13:34:22.185Z,101430.91
2019-01-04T13:36:51.472Z,101419.53
2019-01-04T13:39:20.775Z,101418.62
2019-01-04T13:41:50.062Z,101406.75
2019-01-04T13:44:19.551Z,101407.16
2019-01-04T13:46:48.836Z,101406.61
2019-01-04T13:49:18.325Z,101406.53
2019-01-04T13:51:47.646Z,101406.39
2019-01-04T13:54:17.027Z,101403.61
2019-01-04T13:56:46.305Z,101406.56
2019-01-04T13:59:16.018Z,101412.14
2019-01-04T14:01:45.330Z,101405.03
2019-01-04T14:04:14.924Z,101403.56
2019-01-04T14:07:03.467Z,101400.38
2019-01-04T14:09:32.759Z,101401.77
2019-01-04T14:12:02.222Z,101411.84
2019-01-04T14:14:31.564Z,101411.08
2019-01-04T14:17:00.866Z,101410.27
2019-01-04T14:19:30.187Z,101404.27
2019-01-04T14:21:59.818Z,101395.99
2019-01-04T14:27:36.539Z,101384.26
2019-01-04T14:30:07.480Z,101384.26
2019-01-04T14:32:37.062Z,101384.33
2019-01-04T14:35:06.989Z,101396.69
2019-01-04T14:37:36.400Z,101399.75
2019-01-04T14:40:24.971Z,101421.98
2019-01-04T14:42:54.253Z,101416.16
2019-01-04T14:45:26.257Z,101411.59
2019-01-04T14:47:55.566Z,101407.17
2019-01-04T14:50:34.263Z,101405.91
2019-01-04T14:53:03.590Z,101405.42
2019-01-04T14:55:51.944Z,101389.36
2019-01-04T14:58:40.194Z,101405.06
2019-01-04T15:01:09.510Z,101402.48
2019-01-04T15:03:57.984Z,101399.02
2019-01-04T15:06:27.437Z,101392.38
2019-01-04T15:08:56.723Z,101353.22
2019-01-04T15:11:26.062Z,101381.04
2019-01-04T15:13:55.354Z,101386.73
2019-01-04T15:16:24.701Z,101383.23
2019-01-04T15:18:54.000Z,101380.69
2019-01-04T15:21:42.346Z,101384.22
2019-01-04T15:24:11.965Z,101333.77
2019-01-04T15:26:41.255Z,101367.75
2019-01-04T15:29:10.878Z,101367.87
2019-01-04T15:31:40.175Z,101354.78
2019-01-04T15:34:09.570Z,101349.61
2019-01-04T15:36:38.916Z,101352.31
2019-01-04T15:39:27.249Z,101343.72
2019-01-04T15:41:56.952Z,101341.17
2019-01-04T15:44:45.379Z,101329.00
2019-01-04T15:47:14.687Z,101326.34
2019-01-04T15:49:44.061Z,101322.41
2019-01-04T15:52:13.438Z,101312.31
2019-01-04T15:54:42.926Z,101307.94
2019-01-04T15:57:12.300Z,101304.80
2019-01-04T15:59:41.745Z,101295.50
2019-01-04T16:02:11.038Z,101288.55
2019-01-04T16:04:59.436Z,101290.34
2019-01-04T16:07:28.778Z,101289.03
2019-01-04T16:09:58.118Z,101293.04
2019-01-04T16:12:27.484Z,101290.48
2019-01-04T16:14:56.848Z,101289.69
2019-01-04T16:17:26.144Z,101287.87
2019-01-04T16:22:23.031Z,101270.30
2019-01-04T16:24:52.469Z,101279.12
2019-01-04T16:27:21.761Z,101277.81
2019-01-04T16:29:51.322Z,101278.28
2019-01-04T16:32:20.614Z,101240.59
2019-01-04T16:34:50.080Z,101275.74
2019-01-04T16:37:19.391Z,101270.97
2019-01-04T16:39:49.035Z,101261.55
2019-01-04T16:42:18.596Z,101251.06
2019-01-04T16:44:48.278Z,101249.31
2019-01-04T16:47:17.562Z,101199.80
2019-01-04T16:49:47.203Z,101249.83
2019-01-04T16:52:16.520Z,101251.94
2019-01-04T16:54:46.099Z,101247.61
2019-01-04T17:00:11.343Z,101237.15
2019-01-04T17:02:40.693Z,101243.36
2019-01-04T17:05:10.124Z,101242.55
2019-01-04T17:07:39.459Z,101243.11
2019-01-04T17:10:08.987Z,101240.89
2019-01-04T17:12:57.178Z,101245.38
2019-01-04T17:15:26.565Z,101245.26
2019-01-04T17:17:56.104Z,101252.22
2019-01-04T17:20:25.400Z,101246.97
2019-01-04T17:22:54.990Z,101245.73
2019-01-04T17:25:24.286Z,101159.45
2019-01-04T17:28:12.624Z,101255.23
2019-01-04T17:30:42.342Z,101249.34
2019-01-04T17:33:11.665Z,101217.50
2019-01-04T17:35:41.158Z,101257.75
2019-01-04T17:38:10.464Z,101172.18
2019-01-04T17:40:40.443Z,101255.31
2019-01-04T17:43:29.176Z,101195.80
2019-01-04T17:45:58.489Z,101244.06
2019-01-04T17:48:28.102Z,101246.25
2019-01-04T17:50:57.471Z,101245.74
2019-01-04T17:53:26.961Z,101246.25
2019-01-04T17:55:56.265Z,101239.80
2019-01-04T17:58:26.220Z,101244.31
2019-01-04T18:00:55.639Z,101243.61
2019-01-04T18:03:25.667Z,101240.39
2019-01-04T18:05:55.207Z,101236.30
2019-01-04T18:08:24.675Z,101237.34
2019-01-04T18:10:53.997Z,101190.94
2019-01-04T18:13:23.585Z,101235.75
2019-01-04T18:15:52.884Z,101127.16
2019-01-04T18:18:22.400Z,101227.96
2019-01-04T18:20:51.800Z,101235.34
2019-01-04T18:23:21.432Z,101224.25
2019-01-04T18:25:50.722Z,101176.78
2019-01-04T18:28:20.229Z,101220.55
2019-01-04T18:30:49.518Z,101171.48
2019-01-04T18:33:19.195Z,101216.47
2019-01-04T18:35:48.526Z,101208.47
2019-01-04T18:38:18.093Z,101210.11
2019-01-04T18:40:47.444Z,101206.66
2019-01-04T18:43:17.528Z,101206.73
2019-01-04T18:45:46.853Z,101207.16
2019-01-04T18:48:16.320Z,101208.03
2019-01-04T18:50:45.618Z,101198.86
2019-01-04T18:53:15.255Z,101204.03
2019-01-04T18:55:44.546Z,101205.78
2019-01-04T18:58:32.836Z,101197.55
2019-01-04T19:01:02.193Z,101132.42
2019-01-04T19:03:50.643Z,101194.96
2019-01-04T19:06:19.972Z,101200.73
2019-01-04T19:08:50.419Z,101194.56
2019-01-04T19:11:20.462Z,101197.88
2019-01-04T19:19:35.843Z,101198.24
2019-01-04T19:22:05.346Z,101191.22
2019-01-04T19:24:35.047Z,101189.25
2019-01-04T19:27:44.295Z,101192.55
2019-01-04T19:33:27.858Z,101191.44
2019-01-04T19:35:57.355Z,101193.14
2019-01-04T19:38:26.664Z,101192.02
2019-01-04T19:40:56.223Z,101189.06
2019-01-04T19:43:25.575Z,101186.58
2019-01-04T19:46:14.063Z,101184.57
2019-01-04T19:48:44.149Z,101181.65
2019-01-04T19:51:13.504Z,101181.38
2019-01-04T19:53:45.261Z,101180.67
2019-01-04T19:56:14.575Z,101177.45
2019-01-04T19:58:43.896Z,101177.23
2019-01-04T20:01:13.217Z,101191.41
2019-01-04T20:03:43.053Z,101170.60
2019-01-04T20:07:09.302Z,101174.33
2019-01-04T20:10:35.633Z,101173.17
2019-01-04T20:14:01.840Z,101188.66
2019-01-04T20:17:13.841Z,101191.52
2019-01-04T20:20:06.505Z,101181.69
2019-01-04T20:22:54.847Z,101182.20
2019-01-04T20:25:43.831Z,101181.45
2019-01-04T20:28:32.136Z,101184.95
2019-01-04T20:31:20.400Z,101182.41
2019-01-04T20:34:08.646Z,101177.30
2019-01-04T20:36:56.857Z,101177.42
2019-01-04T20:39:45.327Z,101178.40
2019-01-04T20:42:33.701Z,101178.91
2019-01-04T20:45:22.098Z,101172.06
2019-01-04T20:48:10.492Z,101106.95
2019-01-04T20:50:55.884Z,101164.38
2019-01-04T20:53:44.066Z,101171.84
2019-01-04T20:56:32.263Z,101172.34
2019-01-04T20:59:20.507Z,101171.14
2019-01-04T21:02:08.730Z,101166.01
2019-01-04T21:04:57.139Z,101175.14
2019-01-04T21:07:45.562Z,101167.36
2019-01-04T21:13:33.868Z,101179.27
2019-01-04T21:16:21.076Z,101188.00
2019-01-04T21:19:22.587Z,101092.32
2019-01-04T21:22:10.981Z,101176.83
2019-01-04T21:24:59.239Z,101184.70
2019-01-04T21:27:59.058Z,101179.02
2019-01-04T21:30:47.271Z,101179.02
2019-01-04T21:33:44.462Z,101179.52
2019-01-04T21:36:32.913Z,101175.02
2019-01-04T21:39:21.402Z,101179.31
2019-01-04T21:42:09.661Z,101175.77
2019-01-04T21:44:58.939Z,101191.35
2019-01-04T21:47:47.220Z,101189.50
2019-01-04T21:50:35.493Z,101180.00
2019-01-04T21:53:24.082Z,101188.52
2019-01-04T21:56:24.173Z,101186.71
2019-01-04T21:59:15.089Z,101184.03
2019-01-04T22:02:06.240Z,101191.79
2019-01-04T22:04:54.431Z,101192.19
2019-01-04T22:07:42.808Z,101199.50
2019-01-04T22:10:31.258Z,101215.16
2019-01-04T22:13:19.031Z,101149.48
2019-01-04T22:16:07.222Z,101206.27
2019-01-04T22:18:55.451Z,101213.61
2019-01-04T22:22:02.827Z,101205.63
2019-01-04T22:24:51.019Z,101191.56
2019-01-04T22:27:39.269Z,101191.00
2019-01-04T22:30:27.935Z,101153.97
2019-01-04T22:33:16.389Z,101190.41
2019-01-04T22:36:04.732Z,101149.48
2019-01-04T22:38:56.124Z,101089.00
2019-01-04T22:41:42.159Z,101191.38
2019-01-04T22:44:30.458Z,101177.27
2019-01-04T22:47:18.770Z,101184.03
2019-01-04T22:50:06.971Z,101172.67
2019-01-04T22:52:55.194Z,101185.75
2019-01-04T22:55:43.387Z,101215.53
2019-01-04T22:58:31.584Z,101210.81
2019-01-04T23:01:19.806Z,101205.23
2019-01-04T23:04:08.023Z,101210.58
2019-01-04T23:07:05.006Z,101205.89
2019-01-04T23:09:53.403Z,101208.12
2019-01-04T23:12:41.724Z,101190.78
2019-01-04T23:15:30.060Z,101200.39
2019-01-04T23:18:18.301Z,101199.58
2019-01-04T23:21:06.753Z,101191.80
2019-01-04T23:23:55.031Z,101210.55
2019-01-04T23:26:43.325Z,101206.65
2019-01-04T23:29:31.505Z,101201.42
2019-01-04T23:32:19.712Z,101201.86
2019-01-04T23:35:07.889Z,101197.13
2019-01-04T23:37:56.158Z,101192.77
2019-01-04T23:40:44.343Z,101205.88
2019-01-04T23:43:32.542Z,101214.20
2019-01-04T23:46:20.994Z,101219.86
2019-01-04T23:49:09.354Z,101205.93
2019-01-04T23:52:16.571Z,101214.20
2019-01-04T23:55:04.838Z,101220.25
2019-01-04T23:57:53.014Z,101214.23
